sensor_id;sensor_type;location;lat;lon;timestamp;P1;durP1;ratioP1;P2;durP2;ratioP2
22610;SDS011;11472;45.494;12.142;2022-08-06T00:00:04;4.20;;;2.20;;
22610;SDS011;11472;45.494;12.142;2022-08-06T00:01:00;4.20;;;2.20;;
22610;SDS011;11472;45.494;12.142;2022-08-06T00:02:00;4.20;;;2.20;;
22610;SDS011;11472;45.494;12.142;2022-08-06T00:03:00;7.60;;;2.70;;
22610;SDS011;11472;45.494;12.142;2022-08-06T00:04:00;7.60;;;2.70;;
22610;SDS011;11472;45.494;12.142;2022-08-06T00:05:02;7.60;;;2.70;;
22610;SDS011;11472;45.494;12.142;2022-08-06T00:06:00;7.60;;;2.70;;
22610;SDS011;11472;45.494;12.142;2022-08-06T00:07:00;7.60;;;2.70;;
22610;SDS011;11472;45.494;12.142;2022-08-06T00:08:02;7.60;;;2.70;;
22610;SDS011;11472;45.494;12.142;2022-08-06T00:09:00;7.60;;;2.70;;
22610;SDS011;11472;45.494;12.142;2022-08-06T00:10:03;7.60;;;2.70;;
22610;SDS011;11472;45.494;12.142;2022-08-06T00:11:00;7.60;;;2.70;;
22610;SDS011;11472;45.494;12.142;2022-08-06T00:12:01;7.60;;;2.70;;
22610;SDS011;11472;45.494;12.142;2022-08-06T00:13:02;7.60;;;2.70;;
22610;SDS011;11472;45.494;12.142;2022-08-06T00:14:00;7.60;;;2.70;;
22610;SDS011;11472;45.494;12.142;2022-08-06T00:15:03;7.60;;;2.70;;
22610;SDS011;11472;45.494;12.142;2022-08-06T00:16:07;7.60;;;2.70;;
22610;SDS011;11472;45.494;12.142;2022-08-06T00:17:00;7.60;;;2.70;;
22610;SDS011;11472;45.494;12.142;2022-08-06T00:18:01;4.70;;;2.70;;
22610;SDS011;11472;45.494;12.142;2022-08-06T00:19:00;4.70;;;2.70;;
22610;SDS011;11472;45.494;12.142;2022-08-06T00:20:02;4.70;;;2.70;;
22610;SDS011;11472;45.494;12.142;2022-08-06T00:21:01;4.70;;;2.70;;
22610;SDS011;11472;45.494;12.142;2022-08-06T00:22:00;4.70;;;2.70;;
22610;SDS011;11472;45.494;12.142;2022-08-06T00:23:01;4.70;;;2.70;;
22610;SDS011;11472;45.494;12.142;2022-08-06T00:24:00;4.70;;;2.70;;
22610;SDS011;11472;45.494;12.142;2022-08-06T00:25:00;4.70;;;2.70;;
22610;SDS011;11472;45.494;12.142;2022-08-06T00:26:00;4.70;;;2.70;;
22610;SDS011;11472;45.494;12.142;2022-08-06T00:27:06;4.70;;;2.70;;
22610;SDS011;11472;45.494;12.142;2022-08-06T00:28:00;4.70;;;2.70;;
22610;SDS011;11472;45.494;12.142;2022-08-06T00:29:00;4.70;;;2.70;;
22610;SDS011;11472;45.494;12.142;2022-08-06T00:30:06;4.70;;;2.70;;
22610;SDS011;11472;45.494;12.142;2022-08-06T00:31:07;4.70;;;2.70;;
22610;SDS011;11472;45.494;12.142;2022-08-06T00:32:00;4.70;;;2.70;;
22610;SDS011;11472;45.494;12.142;2022-08-06T00:33:00;4.70;;;2.70;;
22610;SDS011;11472;45.494;12.142;2022-08-06T00:34:02;4.20;;;3.00;;
22610;SDS011;11472;45.494;12.142;2022-08-06T00:35:00;4.20;;;3.00;;
22610;SDS011;11472;45.494;12.142;2022-08-06T00:36:01;4.20;;;3.00;;
22610;SDS011;11472;45.494;12.142;2022-08-06T00:37:00;4.20;;;3.00;;
22610;SDS011;11472;45.494;12.142;2022-08-06T00:38:01;4.20;;;3.00;;
22610;SDS011;11472;45.494;12.142;2022-08-06T00:39:03;4.20;;;3.00;;
22610;SDS011;11472;45.494;12.142;2022-08-06T00:40:00;4.20;;;3.00;;
22610;SDS011;11472;45.494;12.142;2022-08-06T00:41:01;4.20;;;3.00;;
22610;SDS011;11472;45.494;12.142;2022-08-06T00:42:02;4.20;;;3.00;;
22610;SDS011;11472;45.494;12.142;2022-08-06T00:43:04;4.20;;;3.00;;
22610;SDS011;11472;45.494;12.142;2022-08-06T00:44:02;4.20;;;3.00;;
22610;SDS011;11472;45.494;12.142;2022-08-06T00:45:01;4.20;;;3.00;;
22610;SDS011;11472;45.494;12.142;2022-08-06T00:46:00;4.20;;;3.00;;
22610;SDS011;11472;45.494;12.142;2022-08-06T00:47:00;4.20;;;3.00;;
22610;SDS011;11472;45.494;12.142;2022-08-06T00:48:03;4.20;;;3.00;;
22610;SDS011;11472;45.494;12.142;2022-08-06T00:49:10;4.20;;;2.90;;
22610;SDS011;11472;45.494;12.142;2022-08-06T00:50:02;4.20;;;2.90;;
22610;SDS011;11472;45.494;12.142;2022-08-06T00:51:01;4.20;;;2.90;;
22610;SDS011;11472;45.494;12.142;2022-08-06T00:52:00;4.20;;;2.90;;
22610;SDS011;11472;45.494;12.142;2022-08-06T00:53:02;4.20;;;2.90;;
22610;SDS011;11472;45.494;12.142;2022-08-06T00:54:01;4.20;;;2.90;;
22610;SDS011;11472;45.494;12.142;2022-08-06T00:55:00;4.20;;;2.90;;
22610;SDS011;11472;45.494;12.142;2022-08-06T00:56:01;4.20;;;2.90;;
22610;SDS011;11472;45.494;12.142;2022-08-06T00:57:00;4.20;;;2.90;;
22610;SDS011;11472;45.494;12.142;2022-08-06T00:58:00;4.20;;;2.90;;
22610;SDS011;11472;45.494;12.142;2022-08-06T00:59:01;4.20;;;2.90;;
22610;SDS011;11472;45.494;12.142;2022-08-06T01:00:02;4.20;;;2.90;;
22610;SDS011;11472;45.494;12.142;2022-08-06T01:01:00;4.20;;;2.90;;
22610;SDS011;11472;45.494;12.142;2022-08-06T01:02:00;4.20;;;2.90;;
22610;SDS011;11472;45.494;12.142;2022-08-06T01:03:00;4.20;;;2.90;;
22610;SDS011;11472;45.494;12.142;2022-08-06T01:04:00;5.40;;;3.20;;
22610;SDS011;11472;45.494;12.142;2022-08-06T01:05:07;5.40;;;3.20;;
22610;SDS011;11472;45.494;12.142;2022-08-06T01:06:05;5.40;;;3.20;;
22610;SDS011;11472;45.494;12.142;2022-08-06T01:07:00;5.40;;;3.20;;
22610;SDS011;11472;45.494;12.142;2022-08-06T01:08:00;5.40;;;3.20;;
22610;SDS011;11472;45.494;12.142;2022-08-06T01:09:00;5.40;;;3.20;;
22610;SDS011;11472;45.494;12.142;2022-08-06T01:10:00;5.40;;;3.20;;
22610;SDS011;11472;45.494;12.142;2022-08-06T01:11:00;5.40;;;3.20;;
22610;SDS011;11472;45.494;12.142;2022-08-06T01:12:00;5.40;;;3.20;;
22610;SDS011;11472;45.494;12.142;2022-08-06T01:13:00;5.40;;;3.20;;
22610;SDS011;11472;45.494;12.142;2022-08-06T01:14:05;5.40;;;3.20;;
22610;SDS011;11472;45.494;12.142;2022-08-06T01:15:03;5.40;;;3.20;;
22610;SDS011;11472;45.494;12.142;2022-08-06T01:16:12;5.40;;;3.20;;
22610;SDS011;11472;45.494;12.142;2022-08-06T01:17:09;5.40;;;3.20;;
22610;SDS011;11472;45.494;12.142;2022-08-06T01:18:10;5.40;;;3.20;;
22610;SDS011;11472;45.494;12.142;2022-08-06T01:20:28;5.60;;;2.80;;
22610;SDS011;11472;45.494;12.142;2022-08-06T01:22:23;5.60;;;2.80;;
22610;SDS011;11472;45.494;12.142;2022-08-06T01:26:08;5.60;;;2.80;;
22610;SDS011;11472;45.494;12.142;2022-08-06T01:29:03;5.60;;;2.80;;
22610;SDS011;11472;45.494;12.142;2022-08-06T01:30:06;5.60;;;2.80;;
22610;SDS011;11472;45.494;12.142;2022-08-06T01:31:09;5.60;;;2.80;;
22610;SDS011;11472;45.494;12.142;2022-08-06T01:32:12;5.60;;;2.80;;
22610;SDS011;11472;45.494;12.142;2022-08-06T01:33:02;5.60;;;2.80;;
22610;SDS011;11472;45.494;12.142;2022-08-06T01:34:20;5.60;;;3.30;;
22610;SDS011;11472;45.494;12.142;2022-08-06T01:35:05;5.60;;;3.30;;
22610;SDS011;11472;45.494;12.142;2022-08-06T01:36:04;5.60;;;3.30;;
22610;SDS011;11472;45.494;12.142;2022-08-06T01:38:05;5.60;;;3.30;;
22610;SDS011;11472;45.494;12.142;2022-08-06T01:39:01;5.60;;;3.30;;
22610;SDS011;11472;45.494;12.142;2022-08-06T01:40:08;5.60;;;3.30;;
22610;SDS011;11472;45.494;12.142;2022-08-06T01:41:03;5.60;;;3.30;;
22610;SDS011;11472;45.494;12.142;2022-08-06T01:42:00;5.60;;;3.30;;
22610;SDS011;11472;45.494;12.142;2022-08-06T01:43:02;5.60;;;3.30;;
22610;SDS011;11472;45.494;12.142;2022-08-06T01:44:07;5.60;;;3.30;;
22610;SDS011;11472;45.494;12.142;2022-08-06T01:45:01;5.60;;;3.30;;
22610;SDS011;11472;45.494;12.142;2022-08-06T01:46:01;5.60;;;3.30;;
22610;SDS011;11472;45.494;12.142;2022-08-06T01:47:07;5.60;;;3.30;;
22610;SDS011;11472;45.494;12.142;2022-08-06T01:48:03;5.60;;;3.30;;
22610;SDS011;11472;45.494;12.142;2022-08-06T01:49:10;4.90;;;3.40;;
22610;SDS011;11472;45.494;12.142;2022-08-06T01:50:06;4.90;;;3.40;;
22610;SDS011;11472;45.494;12.142;2022-08-06T01:51:02;4.90;;;3.40;;
22610;SDS011;11472;45.494;12.142;2022-08-06T01:52:10;4.90;;;3.40;;
22610;SDS011;11472;45.494;12.142;2022-08-06T01:53:02;4.90;;;3.40;;
22610;SDS011;11472;45.494;12.142;2022-08-06T01:54:07;4.90;;;3.40;;
22610;SDS011;11472;45.494;12.142;2022-08-06T01:55:00;4.90;;;3.40;;
22610;SDS011;11472;45.494;12.142;2022-08-06T01:56:02;4.90;;;3.40;;
22610;SDS011;11472;45.494;12.142;2022-08-06T01:57:00;4.90;;;3.40;;
22610;SDS011;11472;45.494;12.142;2022-08-06T01:58:05;4.90;;;3.40;;
22610;SDS011;11472;45.494;12.142;2022-08-06T01:59:01;4.90;;;3.40;;
22610;SDS011;11472;45.494;12.142;2022-08-06T02:00:00;4.90;;;3.40;;
22610;SDS011;11472;45.494;12.142;2022-08-06T02:01:06;4.90;;;3.40;;
22610;SDS011;11472;45.494;12.142;2022-08-06T02:02:02;4.90;;;3.40;;
22610;SDS011;11472;45.494;12.142;2022-08-06T02:03:03;4.90;;;3.40;;
22610;SDS011;11472;45.494;12.142;2022-08-06T02:04:01;6.30;;;3.40;;
22610;SDS011;11472;45.494;12.142;2022-08-06T02:05:06;6.30;;;3.40;;
22610;SDS011;11472;45.494;12.142;2022-08-06T02:06:00;6.30;;;3.40;;
22610;SDS011;11472;45.494;12.142;2022-08-06T02:07:00;6.30;;;3.40;;
22610;SDS011;11472;45.494;12.142;2022-08-06T02:08:11;6.30;;;3.40;;
22610;SDS011;11472;45.494;12.142;2022-08-06T02:09:14;6.30;;;3.40;;
22610;SDS011;11472;45.494;12.142;2022-08-06T02:10:02;6.30;;;3.40;;
22610;SDS011;11472;45.494;12.142;2022-08-06T02:11:01;6.30;;;3.40;;
22610;SDS011;11472;45.494;12.142;2022-08-06T02:12:08;6.30;;;3.40;;
22610;SDS011;11472;45.494;12.142;2022-08-06T02:13:04;6.30;;;3.40;;
22610;SDS011;11472;45.494;12.142;2022-08-06T02:14:01;6.30;;;3.40;;
22610;SDS011;11472;45.494;12.142;2022-08-06T02:15:06;6.30;;;3.40;;
22610;SDS011;11472;45.494;12.142;2022-08-06T02:16:02;6.30;;;3.40;;
22610;SDS011;11472;45.494;12.142;2022-08-06T02:17:01;6.30;;;3.40;;
22610;SDS011;11472;45.494;12.142;2022-08-06T02:18:05;6.30;;;3.40;;
22610;SDS011;11472;45.494;12.142;2022-08-06T02:19:02;5.50;;;3.50;;
22610;SDS011;11472;45.494;12.142;2022-08-06T02:20:10;5.50;;;3.50;;
22610;SDS011;11472;45.494;12.142;2022-08-06T02:21:13;5.50;;;3.50;;
22610;SDS011;11472;45.494;12.142;2022-08-06T02:22:00;5.50;;;3.50;;
22610;SDS011;11472;45.494;12.142;2022-08-06T02:23:02;5.50;;;3.50;;
22610;SDS011;11472;45.494;12.142;2022-08-06T02:24:02;5.50;;;3.50;;
22610;SDS011;11472;45.494;12.142;2022-08-06T02:25:03;5.50;;;3.50;;
22610;SDS011;11472;45.494;12.142;2022-08-06T02:26:00;5.50;;;3.50;;
22610;SDS011;11472;45.494;12.142;2022-08-06T02:27:00;5.50;;;3.50;;
22610;SDS011;11472;45.494;12.142;2022-08-06T02:28:01;5.50;;;3.50;;
22610;SDS011;11472;45.494;12.142;2022-08-06T02:29:06;5.50;;;3.50;;
22610;SDS011;11472;45.494;12.142;2022-08-06T02:30:06;5.50;;;3.50;;
22610;SDS011;11472;45.494;12.142;2022-08-06T02:31:02;5.50;;;3.50;;
22610;SDS011;11472;45.494;12.142;2022-08-06T02:32:02;5.50;;;3.50;;
22610;SDS011;11472;45.494;12.142;2022-08-06T02:33:04;5.50;;;3.50;;
22610;SDS011;11472;45.494;12.142;2022-08-06T02:34:02;4.60;;;3.30;;
22610;SDS011;11472;45.494;12.142;2022-08-06T02:35:00;4.60;;;3.30;;
22610;SDS011;11472;45.494;12.142;2022-08-06T02:36:23;4.60;;;3.30;;
22610;SDS011;11472;45.494;12.142;2022-08-06T02:37:23;4.60;;;3.30;;
22610;SDS011;11472;45.494;12.142;2022-08-06T02:38:05;4.60;;;3.30;;
22610;SDS011;11472;45.494;12.142;2022-08-06T02:39:08;4.60;;;3.30;;
22610;SDS011;11472;45.494;12.142;2022-08-06T02:40:06;4.60;;;3.30;;
22610;SDS011;11472;45.494;12.142;2022-08-06T02:42:08;4.60;;;3.30;;
22610;SDS011;11472;45.494;12.142;2022-08-06T02:43:08;4.60;;;3.30;;
22610;SDS011;11472;45.494;12.142;2022-08-06T02:44:08;4.60;;;3.30;;
22610;SDS011;11472;45.494;12.142;2022-08-06T02:45:07;4.60;;;3.30;;
22610;SDS011;11472;45.494;12.142;2022-08-06T02:46:10;4.60;;;3.30;;
22610;SDS011;11472;45.494;12.142;2022-08-06T02:47:14;4.60;;;3.30;;
22610;SDS011;11472;45.494;12.142;2022-08-06T02:48:07;4.60;;;3.30;;
22610;SDS011;11472;45.494;12.142;2022-08-06T02:49:05;6.70;;;3.30;;
22610;SDS011;11472;45.494;12.142;2022-08-06T02:50:02;6.70;;;3.30;;
22610;SDS011;11472;45.494;12.142;2022-08-06T02:51:04;6.70;;;3.30;;
22610;SDS011;11472;45.494;12.142;2022-08-06T02:52:15;6.70;;;3.30;;
22610;SDS011;11472;45.494;12.142;2022-08-06T02:53:21;6.70;;;3.30;;
22610;SDS011;11472;45.494;12.142;2022-08-06T02:54:06;6.70;;;3.30;;
22610;SDS011;11472;45.494;12.142;2022-08-06T02:55:19;6.70;;;3.30;;
22610;SDS011;11472;45.494;12.142;2022-08-06T02:56:04;6.70;;;3.30;;
22610;SDS011;11472;45.494;12.142;2022-08-06T02:57:04;6.70;;;3.30;;
22610;SDS011;11472;45.494;12.142;2022-08-06T02:58:08;6.70;;;3.30;;
22610;SDS011;11472;45.494;12.142;2022-08-06T02:59:01;6.70;;;3.30;;
22610;SDS011;11472;45.494;12.142;2022-08-06T03:00:05;6.70;;;3.30;;
22610;SDS011;11472;45.494;12.142;2022-08-06T03:01:01;6.70;;;3.30;;
22610;SDS011;11472;45.494;12.142;2022-08-06T03:02:01;6.70;;;3.30;;
22610;SDS011;11472;45.494;12.142;2022-08-06T03:03:00;6.70;;;3.30;;
22610;SDS011;11472;45.494;12.142;2022-08-06T03:04:01;5.80;;;3.60;;
22610;SDS011;11472;45.494;12.142;2022-08-06T03:05:03;5.80;;;3.60;;
22610;SDS011;11472;45.494;12.142;2022-08-06T03:06:03;5.80;;;3.60;;
22610;SDS011;11472;45.494;12.142;2022-08-06T03:07:05;5.80;;;3.60;;
22610;SDS011;11472;45.494;12.142;2022-08-06T03:08:01;5.80;;;3.60;;
22610;SDS011;11472;45.494;12.142;2022-08-06T03:09:02;5.80;;;3.60;;
22610;SDS011;11472;45.494;12.142;2022-08-06T03:10:01;5.80;;;3.60;;
22610;SDS011;11472;45.494;12.142;2022-08-06T03:11:00;5.80;;;3.60;;
22610;SDS011;11472;45.494;12.142;2022-08-06T03:12:00;5.80;;;3.60;;
22610;SDS011;11472;45.494;12.142;2022-08-06T03:13:05;5.80;;;3.60;;
22610;SDS011;11472;45.494;12.142;2022-08-06T03:14:02;5.80;;;3.60;;
22610;SDS011;11472;45.494;12.142;2022-08-06T03:15:08;5.80;;;3.60;;
22610;SDS011;11472;45.494;12.142;2022-08-06T03:16:02;5.80;;;3.60;;
22610;SDS011;11472;45.494;12.142;2022-08-06T03:17:00;5.80;;;3.60;;
22610;SDS011;11472;45.494;12.142;2022-08-06T03:18:01;5.80;;;3.60;;
22610;SDS011;11472;45.494;12.142;2022-08-06T03:19:11;8.40;;;4.00;;
22610;SDS011;11472;45.494;12.142;2022-08-06T03:20:02;8.40;;;4.00;;
22610;SDS011;11472;45.494;12.142;2022-08-06T03:21:02;8.40;;;4.00;;
22610;SDS011;11472;45.494;12.142;2022-08-06T03:22:01;8.40;;;4.00;;
22610;SDS011;11472;45.494;12.142;2022-08-06T03:23:05;8.40;;;4.00;;
22610;SDS011;11472;45.494;12.142;2022-08-06T03:24:00;8.40;;;4.00;;
22610;SDS011;11472;45.494;12.142;2022-08-06T03:25:01;8.40;;;4.00;;
22610;SDS011;11472;45.494;12.142;2022-08-06T03:26:00;8.40;;;4.00;;
22610;SDS011;11472;45.494;12.142;2022-08-06T03:27:02;8.40;;;4.00;;
22610;SDS011;11472;45.494;12.142;2022-08-06T03:28:03;8.40;;;4.00;;
22610;SDS011;11472;45.494;12.142;2022-08-06T03:29:01;8.40;;;4.00;;
22610;SDS011;11472;45.494;12.142;2022-08-06T03:30:03;8.40;;;4.00;;
22610;SDS011;11472;45.494;12.142;2022-08-06T03:31:01;8.40;;;4.00;;
22610;SDS011;11472;45.494;12.142;2022-08-06T03:32:11;8.40;;;4.00;;
22610;SDS011;11472;45.494;12.142;2022-08-06T03:33:09;8.40;;;4.00;;
22610;SDS011;11472;45.494;12.142;2022-08-06T03:34:05;7.00;;;3.40;;
22610;SDS011;11472;45.494;12.142;2022-08-06T03:35:01;7.00;;;3.40;;
22610;SDS011;11472;45.494;12.142;2022-08-06T03:36:01;7.00;;;3.40;;
22610;SDS011;11472;45.494;12.142;2022-08-06T03:37:01;7.00;;;3.40;;
22610;SDS011;11472;45.494;12.142;2022-08-06T03:38:02;7.00;;;3.40;;
22610;SDS011;11472;45.494;12.142;2022-08-06T03:39:04;7.00;;;3.40;;
22610;SDS011;11472;45.494;12.142;2022-08-06T03:40:03;7.00;;;3.40;;
22610;SDS011;11472;45.494;12.142;2022-08-06T03:41:01;7.00;;;3.40;;
22610;SDS011;11472;45.494;12.142;2022-08-06T03:42:07;7.00;;;3.40;;
22610;SDS011;11472;45.494;12.142;2022-08-06T03:43:00;7.00;;;3.40;;
22610;SDS011;11472;45.494;12.142;2022-08-06T03:44:03;7.00;;;3.40;;
22610;SDS011;11472;45.494;12.142;2022-08-06T03:45:00;7.00;;;3.40;;
22610;SDS011;11472;45.494;12.142;2022-08-06T03:46:02;7.00;;;3.40;;
22610;SDS011;11472;45.494;12.142;2022-08-06T03:47:16;7.00;;;3.40;;
22610;SDS011;11472;45.494;12.142;2022-08-06T03:48:06;7.00;;;3.40;;
22610;SDS011;11472;45.494;12.142;2022-08-06T03:49:03;6.10;;;3.60;;
22610;SDS011;11472;45.494;12.142;2022-08-06T03:50:12;6.10;;;3.60;;
22610;SDS011;11472;45.494;12.142;2022-08-06T03:51:03;6.10;;;3.60;;
22610;SDS011;11472;45.494;12.142;2022-08-06T03:52:01;6.10;;;3.60;;
22610;SDS011;11472;45.494;12.142;2022-08-06T03:53:05;6.10;;;3.60;;
22610;SDS011;11472;45.494;12.142;2022-08-06T03:54:00;6.10;;;3.60;;
22610;SDS011;11472;45.494;12.142;2022-08-06T03:55:05;6.10;;;3.60;;
22610;SDS011;11472;45.494;12.142;2022-08-06T03:56:01;6.10;;;3.60;;
22610;SDS011;11472;45.494;12.142;2022-08-06T03:57:10;6.10;;;3.60;;
22610;SDS011;11472;45.494;12.142;2022-08-06T03:58:04;6.10;;;3.60;;
22610;SDS011;11472;45.494;12.142;2022-08-06T03:59:02;6.10;;;3.60;;
22610;SDS011;11472;45.494;12.142;2022-08-06T04:00:01;6.10;;;3.60;;
22610;SDS011;11472;45.494;12.142;2022-08-06T04:01:02;6.10;;;3.60;;
22610;SDS011;11472;45.494;12.142;2022-08-06T04:02:00;6.10;;;3.60;;
22610;SDS011;11472;45.494;12.142;2022-08-06T04:03:04;6.10;;;3.60;;
22610;SDS011;11472;45.494;12.142;2022-08-06T04:04:00;7.00;;;3.80;;
22610;SDS011;11472;45.494;12.142;2022-08-06T04:05:01;7.00;;;3.80;;
22610;SDS011;11472;45.494;12.142;2022-08-06T04:06:00;7.00;;;3.80;;
22610;SDS011;11472;45.494;12.142;2022-08-06T04:07:03;7.00;;;3.80;;
22610;SDS011;11472;45.494;12.142;2022-08-06T04:08:04;7.00;;;3.80;;
22610;SDS011;11472;45.494;12.142;2022-08-06T04:09:00;7.00;;;3.80;;
22610;SDS011;11472;45.494;12.142;2022-08-06T04:10:01;7.00;;;3.80;;
22610;SDS011;11472;45.494;12.142;2022-08-06T04:11:00;7.00;;;3.80;;
22610;SDS011;11472;45.494;12.142;2022-08-06T04:12:10;7.00;;;3.80;;
22610;SDS011;11472;45.494;12.142;2022-08-06T04:13:10;7.00;;;3.80;;
22610;SDS011;11472;45.494;12.142;2022-08-06T04:14:08;7.00;;;3.80;;
22610;SDS011;11472;45.494;12.142;2022-08-06T04:15:00;7.00;;;3.80;;
22610;SDS011;11472;45.494;12.142;2022-08-06T04:16:02;7.00;;;3.80;;
22610;SDS011;11472;45.494;12.142;2022-08-06T04:17:01;7.00;;;3.80;;
22610;SDS011;11472;45.494;12.142;2022-08-06T04:18:00;7.00;;;3.80;;
22610;SDS011;11472;45.494;12.142;2022-08-06T04:19:00;7.70;;;4.00;;
22610;SDS011;11472;45.494;12.142;2022-08-06T04:20:00;7.70;;;4.00;;
22610;SDS011;11472;45.494;12.142;2022-08-06T04:21:15;7.70;;;4.00;;
22610;SDS011;11472;45.494;12.142;2022-08-06T04:22:10;7.70;;;4.00;;
22610;SDS011;11472;45.494;12.142;2022-08-06T04:23:06;7.70;;;4.00;;
22610;SDS011;11472;45.494;12.142;2022-08-06T04:24:00;7.70;;;4.00;;
22610;SDS011;11472;45.494;12.142;2022-08-06T04:25:00;7.70;;;4.00;;
22610;SDS011;11472;45.494;12.142;2022-08-06T04:26:02;7.70;;;4.00;;
22610;SDS011;11472;45.494;12.142;2022-08-06T04:27:05;7.70;;;4.00;;
22610;SDS011;11472;45.494;12.142;2022-08-06T04:28:00;7.70;;;4.00;;
22610;SDS011;11472;45.494;12.142;2022-08-06T04:29:00;7.70;;;4.00;;
22610;SDS011;11472;45.494;12.142;2022-08-06T04:30:02;7.70;;;4.00;;
22610;SDS011;11472;45.494;12.142;2022-08-06T04:31:00;7.70;;;4.00;;
22610;SDS011;11472;45.494;12.142;2022-08-06T04:32:10;7.70;;;4.00;;
22610;SDS011;11472;45.494;12.142;2022-08-06T04:33:02;7.70;;;4.00;;
22610;SDS011;11472;45.494;12.142;2022-08-06T04:34:00;6.40;;;3.90;;
22610;SDS011;11472;45.494;12.142;2022-08-06T04:35:12;6.40;;;3.90;;
22610;SDS011;11472;45.494;12.142;2022-08-06T04:36:08;6.40;;;3.90;;
22610;SDS011;11472;45.494;12.142;2022-08-06T04:37:02;6.40;;;3.90;;
22610;SDS011;11472;45.494;12.142;2022-08-06T04:38:01;6.40;;;3.90;;
22610;SDS011;11472;45.494;12.142;2022-08-06T04:39:00;6.40;;;3.90;;
22610;SDS011;11472;45.494;12.142;2022-08-06T04:40:01;6.40;;;3.90;;
22610;SDS011;11472;45.494;12.142;2022-08-06T04:41:03;6.40;;;3.90;;
22610;SDS011;11472;45.494;12.142;2022-08-06T04:42:01;6.40;;;3.90;;
22610;SDS011;11472;45.494;12.142;2022-08-06T04:43:01;6.40;;;3.90;;
22610;SDS011;11472;45.494;12.142;2022-08-06T04:44:00;6.40;;;3.90;;
22610;SDS011;11472;45.494;12.142;2022-08-06T04:45:03;6.40;;;3.90;;
22610;SDS011;11472;45.494;12.142;2022-08-06T04:47:01;6.40;;;3.90;;
22610;SDS011;11472;45.494;12.142;2022-08-06T04:48:02;6.40;;;3.90;;
22610;SDS011;11472;45.494;12.142;2022-08-06T04:49:02;4.70;;;3.90;;
22610;SDS011;11472;45.494;12.142;2022-08-06T04:50:03;4.70;;;3.90;;
22610;SDS011;11472;45.494;12.142;2022-08-06T04:51:03;4.70;;;3.90;;
22610;SDS011;11472;45.494;12.142;2022-08-06T04:52:27;4.70;;;3.90;;
22610;SDS011;11472;45.494;12.142;2022-08-06T04:53:10;4.70;;;3.90;;
22610;SDS011;11472;45.494;12.142;2022-08-06T04:54:04;4.70;;;3.90;;
22610;SDS011;11472;45.494;12.142;2022-08-06T04:55:01;4.70;;;3.90;;
22610;SDS011;11472;45.494;12.142;2022-08-06T04:56:05;4.70;;;3.90;;
22610;SDS011;11472;45.494;12.142;2022-08-06T04:57:00;4.70;;;3.90;;
22610;SDS011;11472;45.494;12.142;2022-08-06T04:58:05;4.70;;;3.90;;
22610;SDS011;11472;45.494;12.142;2022-08-06T04:59:00;4.70;;;3.90;;
22610;SDS011;11472;45.494;12.142;2022-08-06T05:00:00;4.70;;;3.90;;
22610;SDS011;11472;45.494;12.142;2022-08-06T05:01:04;4.70;;;3.90;;
22610;SDS011;11472;45.494;12.142;2022-08-06T05:02:01;4.70;;;3.90;;
22610;SDS011;11472;45.494;12.142;2022-08-06T05:03:00;4.70;;;3.90;;
22610;SDS011;11472;45.494;12.142;2022-08-06T05:04:09;5.60;;;3.90;;
22610;SDS011;11472;45.494;12.142;2022-08-06T05:05:00;5.60;;;3.90;;
22610;SDS011;11472;45.494;12.142;2022-08-06T05:06:03;5.60;;;3.90;;
22610;SDS011;11472;45.494;12.142;2022-08-06T05:07:11;5.60;;;3.90;;
22610;SDS011;11472;45.494;12.142;2022-08-06T05:08:01;5.60;;;3.90;;
22610;SDS011;11472;45.494;12.142;2022-08-06T05:09:05;5.60;;;3.90;;
22610;SDS011;11472;45.494;12.142;2022-08-06T05:10:00;5.60;;;3.90;;
22610;SDS011;11472;45.494;12.142;2022-08-06T05:11:05;5.60;;;3.90;;
22610;SDS011;11472;45.494;12.142;2022-08-06T05:12:05;5.60;;;3.90;;
22610;SDS011;11472;45.494;12.142;2022-08-06T05:13:01;5.60;;;3.90;;
22610;SDS011;11472;45.494;12.142;2022-08-06T05:14:04;5.60;;;3.90;;
22610;SDS011;11472;45.494;12.142;2022-08-06T05:16:03;5.60;;;3.90;;
22610;SDS011;11472;45.494;12.142;2022-08-06T05:17:02;5.60;;;3.90;;
22610;SDS011;11472;45.494;12.142;2022-08-06T05:18:06;5.60;;;3.90;;
22610;SDS011;11472;45.494;12.142;2022-08-06T05:19:14;5.30;;;3.60;;
22610;SDS011;11472;45.494;12.142;2022-08-06T05:20:12;5.30;;;3.60;;
22610;SDS011;11472;45.494;12.142;2022-08-06T05:21:01;5.30;;;3.60;;
22610;SDS011;11472;45.494;12.142;2022-08-06T05:22:06;5.30;;;3.60;;
22610;SDS011;11472;45.494;12.142;2022-08-06T05:23:18;5.30;;;3.60;;
22610;SDS011;11472;45.494;12.142;2022-08-06T05:24:00;5.30;;;3.60;;
22610;SDS011;11472;45.494;12.142;2022-08-06T05:25:05;5.30;;;3.60;;
22610;SDS011;11472;45.494;12.142;2022-08-06T05:26:00;5.30;;;3.60;;
22610;SDS011;11472;45.494;12.142;2022-08-06T05:27:00;5.30;;;3.60;;
22610;SDS011;11472;45.494;12.142;2022-08-06T05:28:05;5.30;;;3.60;;
22610;SDS011;11472;45.494;12.142;2022-08-06T05:29:00;5.30;;;3.60;;
22610;SDS011;11472;45.494;12.142;2022-08-06T05:30:03;5.30;;;3.60;;
22610;SDS011;11472;45.494;12.142;2022-08-06T05:31:00;5.30;;;3.60;;
22610;SDS011;11472;45.494;12.142;2022-08-06T05:32:04;5.30;;;3.60;;
22610;SDS011;11472;45.494;12.142;2022-08-06T05:33:02;5.30;;;3.60;;
22610;SDS011;11472;45.494;12.142;2022-08-06T05:34:02;5.60;;;4.00;;
22610;SDS011;11472;45.494;12.142;2022-08-06T05:35:00;5.60;;;4.00;;
22610;SDS011;11472;45.494;12.142;2022-08-06T05:36:07;5.60;;;4.00;;
22610;SDS011;11472;45.494;12.142;2022-08-06T05:37:00;5.60;;;4.00;;
22610;SDS011;11472;45.494;12.142;2022-08-06T05:38:04;5.60;;;4.00;;
22610;SDS011;11472;45.494;12.142;2022-08-06T05:39:00;5.60;;;4.00;;
22610;SDS011;11472;45.494;12.142;2022-08-06T05:40:00;5.60;;;4.00;;
22610;SDS011;11472;45.494;12.142;2022-08-06T05:41:04;5.60;;;4.00;;
22610;SDS011;11472;45.494;12.142;2022-08-06T05:42:02;5.60;;;4.00;;
22610;SDS011;11472;45.494;12.142;2022-08-06T05:43:00;5.60;;;4.00;;
22610;SDS011;11472;45.494;12.142;2022-08-06T05:44:02;5.60;;;4.00;;
22610;SDS011;11472;45.494;12.142;2022-08-06T05:45:01;5.60;;;4.00;;
22610;SDS011;11472;45.494;12.142;2022-08-06T05:46:04;5.60;;;4.00;;
22610;SDS011;11472;45.494;12.142;2022-08-06T05:47:06;5.60;;;4.00;;
22610;SDS011;11472;45.494;12.142;2022-08-06T05:48:00;5.60;;;4.00;;
22610;SDS011;11472;45.494;12.142;2022-08-06T05:49:13;7.20;;;3.70;;
22610;SDS011;11472;45.494;12.142;2022-08-06T05:50:06;7.20;;;3.70;;
22610;SDS011;11472;45.494;12.142;2022-08-06T05:51:04;7.20;;;3.70;;
22610;SDS011;11472;45.494;12.142;2022-08-06T05:52:03;7.20;;;3.70;;
22610;SDS011;11472;45.494;12.142;2022-08-06T05:53:15;7.20;;;3.70;;
22610;SDS011;11472;45.494;12.142;2022-08-06T05:55:03;7.20;;;3.70;;
22610;SDS011;11472;45.494;12.142;2022-08-06T05:56:10;7.20;;;3.70;;
22610;SDS011;11472;45.494;12.142;2022-08-06T05:57:13;7.20;;;3.70;;
22610;SDS011;11472;45.494;12.142;2022-08-06T05:58:04;7.20;;;3.70;;
22610;SDS011;11472;45.494;12.142;2022-08-06T05:59:04;7.20;;;3.70;;
22610;SDS011;11472;45.494;12.142;2022-08-06T06:00:04;7.20;;;3.70;;
22610;SDS011;11472;45.494;12.142;2022-08-06T06:01:02;7.20;;;3.70;;
22610;SDS011;11472;45.494;12.142;2022-08-06T06:02:01;7.20;;;3.70;;
22610;SDS011;11472;45.494;12.142;2022-08-06T06:03:06;7.20;;;3.70;;
22610;SDS011;11472;45.494;12.142;2022-08-06T06:04:00;4.40;;;2.70;;
22610;SDS011;11472;45.494;12.142;2022-08-06T06:05:10;4.40;;;2.70;;
22610;SDS011;11472;45.494;12.142;2022-08-06T06:06:04;4.40;;;2.70;;
22610;SDS011;11472;45.494;12.142;2022-08-06T06:07:02;4.40;;;2.70;;